Rochester, Texas
Current Conditions -  °F | °C
As of 8:58 AM on Monday 22 Dec 2014 (Local Time) from KDYS Reporting Station
Clear Clear  
Wind Chill: 59°   Ceiling: Unl
Heat Index: 59°   Visibility: 10mi
Dew Point: 33°   Wind: 16mph
Humidity: 38%   Direction: 300°WNW
Pressure: 29.68"   Gusts: NA
Location:  33.32°N, 99.86°W
Report Text: KDYS 221458Z AUTO 30014KT 10SM CLR 15/01 A2968 RMK AO2 SLP032 T01500007 52027 $
Loading
Personal Weather Stations






























Interactive Weather Map New forecast layout! Learn more

10-Day Weather Forecast

Advertisements
Track Severe Weather on mobile